createdAt,value
2017-12-02T00:00:04.664Z,101247.20
2017-12-02T00:01:07.145Z,101250.06
2017-12-02T00:02:09.773Z,101250.22
2017-12-02T00:03:12.311Z,101250.18
2017-12-02T00:04:14.811Z,101249.01
2017-12-02T00:05:17.284Z,101254.58
2017-12-02T00:06:19.768Z,101250.32
2017-12-02T00:07:22.409Z,101250.31
2017-12-02T00:08:25.035Z,101252.45
2017-12-02T00:09:27.512Z,101257.86
2017-12-02T00:10:30.014Z,101257.45
2017-12-02T00:11:32.494Z,101257.89
2017-12-02T00:12:34.969Z,101261.52
2017-12-02T00:13:37.434Z,101259.94
2017-12-02T00:14:39.918Z,101265.20
2017-12-02T00:15:42.397Z,101261.34
2017-12-02T00:16:44.880Z,101262.23
2017-12-02T00:17:47.357Z,101270.88
2017-12-02T00:18:49.886Z,101266.05
2017-12-02T00:19:52.633Z,101272.36
2017-12-02T00:20:55.511Z,101277.09
2017-12-02T00:21:58.065Z,101274.37
2017-12-02T00:23:00.674Z,101280.11
2017-12-02T00:24:03.136Z,101280.71
2017-12-02T00:25:05.626Z,101279.59
2017-12-02T00:26:08.087Z,101282.32
2017-12-02T00:27:10.567Z,101282.00
2017-12-02T00:28:13.049Z,101278.94
2017-12-02T00:29:15.529Z,101280.27
2017-12-02T00:30:18.005Z,101281.50
2017-12-02T00:31:20.479Z,101281.67
2017-12-02T00:32:22.968Z,101283.56
2017-12-02T00:33:25.428Z,101282.23
2017-12-02T00:34:27.955Z,101286.30
2017-12-02T00:35:30.462Z,101287.64
2017-12-02T00:36:33.030Z,101287.84
2017-12-02T00:37:35.513Z,101286.08
2017-12-02T00:38:37.975Z,101287.38
2017-12-02T00:39:40.464Z,101283.77
2017-12-02T00:40:43.153Z,101290.55
2017-12-02T00:41:45.629Z,101289.14
2017-12-02T00:42:48.121Z,101287.78
2017-12-02T00:43:50.786Z,101292.45
2017-12-02T00:44:53.293Z,101291.27
2017-12-02T00:45:55.996Z,101290.75
2017-12-02T00:46:58.487Z,101289.58
2017-12-02T00:48:00.964Z,101290.44
2017-12-02T00:49:03.444Z,101291.78
2017-12-02T00:50:05.925Z,101289.36
2017-12-02T00:51:08.391Z,101293.42
2017-12-02T00:52:10.913Z,101294.28
2017-12-02T00:53:13.389Z,101295.70
2017-12-02T00:54:15.861Z,101295.23
2017-12-02T00:55:18.336Z,101295.46
2017-12-02T00:56:20.820Z,101298.88
2017-12-02T00:57:23.492Z,101301.81
2017-12-02T00:58:26.243Z,101308.32
2017-12-02T00:59:28.743Z,101305.78
2017-12-02T01:00:31.230Z,101308.22
2017-12-02T01:01:33.710Z,101310.64
2017-12-02T01:02:36.172Z,101313.75
2017-12-02T01:03:38.645Z,101311.09
2017-12-02T01:04:41.125Z,101320.99
2017-12-02T01:05:43.610Z,101320.19
2017-12-02T01:06:46.100Z,101321.43
2017-12-02T01:07:48.576Z,101322.91
2017-12-02T01:08:51.093Z,101325.34
2017-12-02T01:09:54.030Z,101329.48
2017-12-02T01:10:56.807Z,101328.89
2017-12-02T01:11:59.317Z,101325.66
2017-12-02T01:13:01.991Z,101328.70
2017-12-02T01:14:04.469Z,101331.95
2017-12-02T01:15:06.945Z,101332.95
2017-12-02T01:16:09.423Z,101328.30
2017-12-02T01:17:11.913Z,101332.55
2017-12-02T01:18:14.397Z,101334.42
2017-12-02T01:19:16.862Z,101339.84
2017-12-02T01:20:19.327Z,101335.92
2017-12-02T01:21:22.086Z,101340.27
2017-12-02T01:22:24.633Z,101340.48
2017-12-02T01:23:27.238Z,101344.48
2017-12-02T01:24:29.721Z,101344.77
2017-12-02T01:25:32.199Z,101350.14
2017-12-02T01:26:34.672Z,101352.09
2017-12-02T01:27:37.134Z,101357.34
2017-12-02T01:28:39.619Z,101352.55
2017-12-02T01:29:42.093Z,101358.23
2017-12-02T01:30:44.573Z,101360.45
2017-12-02T01:31:47.042Z,101365.85
2017-12-02T01:32:49.588Z,101370.60
2017-12-02T01:33:52.331Z,101370.19
2017-12-02T01:34:54.806Z,101377.80
2017-12-02T01:35:57.438Z,101374.02
2017-12-02T01:36:59.931Z,101375.91
2017-12-02T01:38:02.413Z,101379.96
2017-12-02T01:39:04.943Z,101379.91
2017-12-02T01:40:07.425Z,101381.17
2017-12-02T01:41:09.904Z,101381.28
2017-12-02T01:42:12.396Z,101377.88
2017-12-02T01:43:15.050Z,101378.97
2017-12-02T01:44:17.531Z,101383.25
2017-12-02T01:45:20.021Z,101386.09
2017-12-02T01:46:22.488Z,101387.96
2017-12-02T01:47:24.993Z,101386.72
2017-12-02T01:48:27.454Z,101391.49
2017-12-02T01:49:29.935Z,101391.89
2017-12-02T01:50:32.400Z,101394.30
2017-12-02T01:51:34.878Z,101392.27
2017-12-02T01:52:37.349Z,101397.04
2017-12-02T01:53:39.818Z,101400.30
2017-12-02T01:54:42.288Z,101398.74
2017-12-02T01:55:44.766Z,101401.69
2017-12-02T01:56:47.242Z,101398.58
2017-12-02T01:57:49.710Z,101403.34
2017-12-02T01:58:52.187Z,101399.42
2017-12-02T01:59:54.700Z,101407.69
2017-12-02T02:00:57.170Z,101410.51
2017-12-02T02:01:59.655Z,101407.91
2017-12-02T02:03:02.238Z,101416.87
2017-12-02T02:04:04.739Z,101411.27
2017-12-02T02:05:07.249Z,101417.67
2017-12-02T02:06:09.723Z,101415.93
2017-12-02T02:07:12.210Z,101418.03
2017-12-02T02:08:14.699Z,101415.05
2017-12-02T02:09:17.190Z,101423.17
2017-12-02T02:10:19.671Z,101412.03
2017-12-02T02:11:22.159Z,101420.59
2017-12-02T02:12:24.633Z,101418.52
2017-12-02T02:13:27.098Z,101420.04
2017-12-02T02:14:29.564Z,101421.52
2017-12-02T02:15:32.049Z,101420.62
2017-12-02T02:16:34.524Z,101423.53
2017-12-02T02:17:36.986Z,101419.61
2017-12-02T02:18:39.469Z,101420.34
2017-12-02T02:19:42.226Z,101419.96
2017-12-02T02:20:44.709Z,101422.97
2017-12-02T02:21:47.170Z,101423.44
2017-12-02T02:22:49.649Z,101426.17
2017-12-02T02:23:52.128Z,101425.23
2017-12-02T02:24:54.657Z,101422.83
2017-12-02T02:25:57.132Z,101419.40
2017-12-02T02:26:59.620Z,101425.81
2017-12-02T02:28:02.117Z,101423.93
2017-12-02T02:29:04.726Z,101419.08
2017-12-02T02:30:07.190Z,101422.41
2017-12-02T02:31:09.673Z,101419.40
2017-12-02T02:32:12.148Z,101416.56
2017-12-02T02:33:14.623Z,101416.30
2017-12-02T02:34:17.092Z,101417.83
2017-12-02T02:35:19.637Z,101416.58
2017-12-02T02:36:22.205Z,101423.77
2017-12-02T02:37:24.716Z,101423.37
2017-12-02T02:38:27.230Z,101425.70
2017-12-02T02:39:29.723Z,101422.88
2017-12-02T02:40:32.310Z,101422.16
2017-12-02T02:41:34.790Z,101419.55
2017-12-02T02:42:37.365Z,101423.67
2017-12-02T02:43:39.835Z,101420.37
2017-12-02T02:44:42.330Z,101415.33
2017-12-02T02:45:44.818Z,101417.93
2017-12-02T02:46:47.289Z,101419.02
2017-12-02T02:47:49.787Z,101423.23
2017-12-02T02:48:52.447Z,101426.06
2017-12-02T02:51:03.731Z,101425.50
2017-12-02T02:52:06.208Z,101433.78
2017-12-02T02:53:08.691Z,101427.21
2017-12-02T02:54:11.181Z,101436.19
2017-12-02T02:55:13.650Z,101431.46
2017-12-02T02:56:16.133Z,101435.38
2017-12-02T02:57:18.665Z,101434.16
2017-12-02T02:58:21.164Z,101440.58
2017-12-02T02:59:23.692Z,101435.64
2017-12-02T03:00:27.167Z,101432.89
2017-12-02T03:01:29.653Z,101437.50
2017-12-02T03:02:32.148Z,101441.05
2017-12-02T03:03:34.615Z,101441.89
2017-12-02T03:04:37.106Z,101442.55
2017-12-02T03:05:39.570Z,101446.19
2017-12-02T03:06:42.041Z,101441.88
2017-12-02T03:07:44.513Z,101443.13
2017-12-02T03:08:46.990Z,101443.95
2017-12-02T03:09:49.468Z,101445.52
2017-12-02T03:10:51.969Z,101438.09
2017-12-02T03:11:54.561Z,101440.29
2017-12-02T03:12:57.114Z,101443.14
2017-12-02T03:13:59.588Z,101441.14
2017-12-02T03:15:02.061Z,101442.11
2017-12-02T03:16:04.518Z,101442.11
2017-12-02T03:17:07.038Z,101445.89
2017-12-02T03:18:09.537Z,101442.30
2017-12-02T03:19:12.045Z,101443.89
2017-12-02T03:20:14.503Z,101444.36
2017-12-02T03:21:16.996Z,101442.92
2017-12-02T03:22:19.507Z,101448.11
2017-12-02T03:23:22.023Z,101446.52
2017-12-02T03:24:24.499Z,101445.59
2017-12-02T03:25:26.977Z,101450.32
2017-12-02T03:26:29.448Z,101445.94
2017-12-02T03:27:31.909Z,101448.74
2017-12-02T03:28:34.397Z,101445.92
2017-12-02T03:29:36.867Z,101445.19
2017-12-02T03:30:39.341Z,101442.86
2017-12-02T03:31:41.812Z,101441.19
2017-12-02T03:32:44.269Z,101438.22
2017-12-02T03:33:46.733Z,101437.74
2017-12-02T03:34:49.216Z,101442.03
2017-12-02T03:35:51.692Z,101444.88
2017-12-02T03:36:54.431Z,101444.17
2017-12-02T03:37:56.936Z,101447.49
2017-12-02T03:38:59.417Z,101450.56
2017-12-02T03:40:01.879Z,101451.94
2017-12-02T03:41:04.356Z,101454.82
2017-12-02T03:42:06.838Z,101460.11
2017-12-02T03:43:09.302Z,101460.23
2017-12-02T03:44:11.781Z,101461.34
2017-12-02T03:45:14.252Z,101458.67
2017-12-02T03:46:16.720Z,101455.80
2017-12-02T03:47:19.195Z,101455.52
2017-12-02T03:48:22.319Z,101452.81
2017-12-02T03:49:24.830Z,101457.39
2017-12-02T03:50:27.296Z,101453.03
2017-12-02T03:51:29.762Z,101455.48
2017-12-02T03:52:32.243Z,101459.08
2017-12-02T03:53:34.721Z,101454.37
2017-12-02T03:54:37.202Z,101452.19
2017-12-02T03:55:39.672Z,101454.60
2017-12-02T03:56:42.131Z,101459.67
2017-12-02T03:57:44.591Z,101462.09
2017-12-02T03:58:47.107Z,101461.55
2017-12-02T03:59:49.579Z,101463.66
2017-12-02T04:00:52.047Z,101454.82
2017-12-02T04:01:54.528Z,101465.21
2017-12-02T04:02:56.986Z,101460.95
2017-12-02T04:03:59.470Z,101463.08
2017-12-02T04:05:01.930Z,101463.65
2017-12-02T04:06:04.413Z,101467.31
2017-12-02T04:07:06.870Z,101471.73
2017-12-02T04:08:09.329Z,101468.10
2017-12-02T04:09:11.787Z,101465.88
2017-12-02T04:10:14.442Z,101472.27
2017-12-02T04:11:16.962Z,101475.34
2017-12-02T04:12:19.419Z,101469.08
2017-12-02T04:13:21.928Z,101471.77
2017-12-02T04:14:24.408Z,101468.85
2017-12-02T04:15:26.876Z,101470.29
2017-12-02T04:16:29.367Z,101470.30
2017-12-02T04:17:31.845Z,101469.84
2017-12-02T04:18:34.324Z,101477.91
2017-12-02T04:19:36.795Z,101469.88
2017-12-02T04:20:39.308Z,101470.60
2017-12-02T04:21:41.770Z,101469.26
2017-12-02T04:22:44.269Z,101472.33
2017-12-02T04:23:46.744Z,101471.64
2017-12-02T04:24:49.228Z,101474.65
2017-12-02T04:25:51.717Z,101473.67
2017-12-02T04:26:54.187Z,101470.05
2017-12-02T04:27:56.647Z,101471.39
2017-12-02T04:28:59.129Z,101475.81
2017-12-02T04:30:01.591Z,101475.59
2017-12-02T04:31:04.120Z,101471.30
2017-12-02T04:32:06.604Z,101474.77
2017-12-02T04:33:09.101Z,101474.20
2017-12-02T04:34:11.575Z,101473.36
2017-12-02T04:35:14.050Z,101471.88
2017-12-02T04:36:16.520Z,101473.42
2017-12-02T04:37:18.979Z,101476.59
2017-12-02T04:38:21.434Z,101475.55
2017-12-02T04:39:23.914Z,101478.52
2017-12-02T04:40:26.376Z,101479.14
2017-12-02T04:41:28.851Z,101481.80
2017-12-02T04:42:31.340Z,101483.54
2017-12-02T04:43:33.832Z,101483.84
2017-12-02T04:44:36.296Z,101487.13
2017-12-02T04:45:38.777Z,101488.50
2017-12-02T04:46:41.238Z,101487.44
2017-12-02T04:47:43.698Z,101484.43
2017-12-02T04:48:46.176Z,101493.61
2017-12-02T04:49:48.653Z,101491.85
2017-12-02T04:50:51.127Z,101490.48
2017-12-02T04:51:53.591Z,101494.63
2017-12-02T04:52:56.047Z,101493.58
2017-12-02T04:53:58.532Z,101497.81
2017-12-02T04:55:00.991Z,101498.09
2017-12-02T04:56:03.465Z,101493.03
2017-12-02T04:57:05.935Z,101493.80
2017-12-02T04:58:08.415Z,101489.20
2017-12-02T04:59:10.889Z,101491.11
2017-12-02T05:00:13.372Z,101490.75
2017-12-02T05:01:15.830Z,101496.33
2017-12-02T05:02:18.304Z,101497.17
2017-12-02T05:03:20.791Z,101498.58
2017-12-02T05:04:23.282Z,101500.40
2017-12-02T05:05:25.767Z,101489.28
2017-12-02T05:06:28.259Z,101488.43
2017-12-02T05:07:30.823Z,101501.71
2017-12-02T05:08:33.300Z,101498.61
2017-12-02T05:09:35.770Z,101496.64
2017-12-02T05:10:38.243Z,101501.37
2017-12-02T05:11:40.707Z,101499.05
2017-12-02T05:12:43.175Z,101501.34
2017-12-02T05:13:45.666Z,101496.98
2017-12-02T05:14:48.143Z,101502.88
2017-12-02T05:15:50.622Z,101503.59
2017-12-02T05:16:53.084Z,101503.03
2017-12-02T05:17:55.549Z,101500.02
2017-12-02T05:18:58.025Z,101500.23
2017-12-02T05:20:00.509Z,101496.25
2017-12-02T05:21:02.987Z,101492.83
2017-12-02T05:22:05.456Z,101494.46
2017-12-02T05:23:07.923Z,101492.75
2017-12-02T05:24:10.384Z,101495.28
2017-12-02T05:25:12.860Z,101496.78
2017-12-02T05:26:15.323Z,101501.14
2017-12-02T05:27:17.805Z,101502.14
2017-12-02T05:28:20.262Z,101494.59
2017-12-02T05:29:22.732Z,101494.28
2017-12-02T05:30:25.233Z,101497.35
2017-12-02T05:31:27.709Z,101494.25
2017-12-02T05:32:30.184Z,101493.77
2017-12-02T05:33:32.679Z,101498.57
2017-12-02T05:34:35.142Z,101495.23
2017-12-02T05:35:37.621Z,101500.63
2017-12-02T05:36:40.082Z,101497.87
2017-12-02T05:37:42.565Z,101501.88
2017-12-02T05:38:45.048Z,101504.18
2017-12-02T05:39:47.525Z,101500.56
2017-12-02T05:40:49.990Z,101504.83
2017-12-02T05:41:52.464Z,101502.14
2017-12-02T05:42:54.927Z,101501.81
2017-12-02T05:43:57.395Z,101508.16
2017-12-02T05:44:59.887Z,101511.04
2017-12-02T05:46:02.373Z,101509.89
2017-12-02T05:47:04.841Z,101518.16
2017-12-02T05:48:07.312Z,101518.57
2017-12-02T05:49:09.784Z,101521.80
2017-12-02T05:50:12.262Z,101518.97
2017-12-02T05:51:14.749Z,101527.05
2017-12-02T05:52:17.215Z,101525.12
2017-12-02T05:53:19.674Z,101531.10
2017-12-02T05:54:22.130Z,101529.78
2017-12-02T05:55:24.614Z,101527.23
2017-12-02T05:56:27.081Z,101526.39
2017-12-02T05:57:29.560Z,101521.97
2017-12-02T05:58:32.056Z,101524.87
2017-12-02T05:59:34.521Z,101523.09
2017-12-02T06:00:36.988Z,101521.09
2017-12-02T06:01:39.461Z,101522.03
2017-12-02T06:02:41.923Z,101523.09
2017-12-02T06:03:44.444Z,101527.28
2017-12-02T06:04:46.911Z,101525.47
2017-12-02T06:05:49.392Z,101533.83
2017-12-02T06:06:51.850Z,101530.28
2017-12-02T06:07:54.315Z,101526.39
2017-12-02T06:08:56.816Z,101528.15
2017-12-02T06:09:59.281Z,101532.55
2017-12-02T06:11:01.761Z,101533.89
2017-12-02T06:12:04.245Z,101537.61
2017-12-02T06:13:06.721Z,101540.12
2017-12-02T06:14:09.186Z,101539.03
2017-12-02T06:15:11.717Z,101533.86
2017-12-02T06:16:14.214Z,101541.11
2017-12-02T06:17:16.683Z,101543.33
2017-12-02T06:18:19.147Z,101544.21
2017-12-02T06:19:21.610Z,101546.22
2017-12-02T06:20:24.118Z,101543.70
2017-12-02T06:21:26.680Z,101549.69
2017-12-02T06:22:29.171Z,101554.42
2017-12-02T06:23:31.656Z,101557.12
2017-12-02T06:24:34.119Z,101553.13
2017-12-02T06:25:36.613Z,101558.63
2017-12-02T06:26:39.095Z,101561.16
2017-12-02T06:27:41.553Z,101563.24
2017-12-02T06:28:44.031Z,101562.75
2017-12-02T06:29:46.518Z,101561.69
2017-12-02T06:30:49.000Z,101556.98
2017-12-02T06:31:51.492Z,101566.22
2017-12-02T06:32:53.951Z,101561.50
2017-12-02T06:33:56.422Z,101565.86
2017-12-02T06:34:58.923Z,101568.86
2017-12-02T06:36:01.405Z,101571.88
2017-12-02T06:37:03.953Z,101573.09
2017-12-02T06:38:06.441Z,101570.05
2017-12-02T06:39:08.920Z,101574.29
2017-12-02T06:40:11.391Z,101571.48
2017-12-02T06:41:13.884Z,101574.55
2017-12-02T06:42:16.368Z,101574.67
2017-12-02T06:43:18.877Z,101576.25
2017-12-02T06:44:21.348Z,101578.95
2017-12-02T06:45:23.824Z,101576.95
2017-12-02T06:46:26.304Z,101575.49
2017-12-02T06:47:28.833Z,101575.10
2017-12-02T06:48:31.315Z,101573.31
2017-12-02T06:49:33.806Z,101575.22
2017-12-02T06:50:36.301Z,101578.58
2017-12-02T06:51:38.779Z,101588.06
2017-12-02T06:52:41.255Z,101584.02
2017-12-02T06:53:43.757Z,101591.16
2017-12-02T06:54:46.248Z,101593.50
2017-12-02T06:55:48.726Z,101596.48
2017-12-02T06:56:51.226Z,101589.67
2017-12-02T06:57:53.694Z,101595.61
2017-12-02T06:58:56.188Z,101596.21
2017-12-02T06:59:58.669Z,101596.82
2017-12-02T07:01:01.197Z,101593.56
2017-12-02T07:02:03.696Z,101599.48
2017-12-02T07:03:06.172Z,101600.57
2017-12-02T07:04:08.660Z,101596.83
2017-12-02T07:05:11.149Z,101598.61
2017-12-02T07:06:13.633Z,101599.98
2017-12-02T07:07:16.107Z,101601.28
2017-12-02T07:08:18.613Z,101603.89
2017-12-02T07:09:21.113Z,101604.77
2017-12-02T07:10:23.622Z,101611.47
2017-12-02T07:11:26.091Z,101612.34
2017-12-02T07:12:28.698Z,101597.62
2017-12-02T07:13:31.200Z,101606.33
2017-12-02T07:14:33.678Z,101607.10
2017-12-02T07:15:36.158Z,101607.80
2017-12-02T07:16:38.639Z,101612.42
2017-12-02T07:17:41.115Z,101614.61
2017-12-02T07:18:43.615Z,101619.56
2017-12-02T07:19:46.087Z,101617.98
2017-12-02T07:20:48.562Z,101622.77
2017-12-02T07:21:51.068Z,101624.29
2017-12-02T07:22:53.589Z,101625.44
2017-12-02T07:23:56.071Z,101625.44
2017-12-02T07:24:58.564Z,101628.33
2017-12-02T07:26:01.027Z,101627.63
2017-12-02T07:27:03.491Z,101628.77
2017-12-02T07:28:05.967Z,101624.95
2017-12-02T07:29:08.447Z,101619.41
2017-12-02T07:30:10.933Z,101628.34
2017-12-02T07:31:13.415Z,101633.55
2017-12-02T07:32:15.883Z,101631.93
2017-12-02T07:33:18.346Z,101629.47
2017-12-02T07:34:20.830Z,101636.50
2017-12-02T07:35:23.325Z,101636.27
2017-12-02T07:36:25.797Z,101637.52
2017-12-02T07:37:28.265Z,101638.30
2017-12-02T07:38:30.744Z,101640.20
2017-12-02T07:39:33.224Z,101642.98
2017-12-02T07:40:35.712Z,101644.00
2017-12-02T07:41:38.190Z,101646.41
2017-12-02T07:42:40.722Z,101651.13
2017-12-02T07:43:43.230Z,101645.83
2017-12-02T07:44:45.751Z,101650.42
2017-12-02T07:45:48.240Z,101645.41
2017-12-02T07:46:50.721Z,101649.89
2017-12-02T07:47:53.186Z,101650.70
2017-12-02T07:48:55.668Z,101655.06
2017-12-02T07:49:58.156Z,101646.78
2017-12-02T07:51:00.618Z,101651.85
2017-12-02T07:52:03.122Z,101653.09
2017-12-02T07:53:05.605Z,101653.75
2017-12-02T07:54:08.071Z,101649.95
2017-12-02T07:55:10.546Z,101656.63
2017-12-02T07:56:13.010Z,101655.53
2017-12-02T07:57:15.478Z,101658.11
2017-12-02T07:58:17.946Z,101656.47
2017-12-02T07:59:20.421Z,101653.69
2017-12-02T08:00:22.968Z,101657.02
2017-12-02T08:01:25.439Z,101650.48
2017-12-02T08:02:27.908Z,101661.31
2017-12-02T08:03:30.389Z,101655.38
2017-12-02T08:04:32.870Z,101661.92
2017-12-02T08:05:35.340Z,101660.67
2017-12-02T08:06:37.806Z,101661.25
2017-12-02T08:07:40.275Z,101659.14
2017-12-02T08:08:42.790Z,101660.63
2017-12-02T08:09:45.252Z,101663.39
2017-12-02T08:10:47.733Z,101662.77
2017-12-02T08:11:50.194Z,101669.60
2017-12-02T08:12:52.673Z,101660.87
2017-12-02T08:13:55.134Z,101659.97
2017-12-02T08:14:57.603Z,101661.09
2017-12-02T08:16:00.403Z,101667.84
2017-12-02T08:17:02.880Z,101664.08
2017-12-02T08:18:05.360Z,101665.76
2017-12-02T08:19:07.835Z,101670.13
2017-12-02T08:20:10.317Z,101672.22
2017-12-02T08:21:12.791Z,101671.95
2017-12-02T08:22:15.263Z,101668.19
2017-12-02T08:23:17.735Z,101672.63
2017-12-02T08:24:20.233Z,101676.80
2017-12-02T08:25:23.526Z,101668.27
2017-12-02T08:26:26.124Z,101662.38
2017-12-02T08:27:28.600Z,101665.28
2017-12-02T08:28:31.077Z,101662.53
2017-12-02T08:29:33.551Z,101662.77
2017-12-02T08:30:36.043Z,101662.33
2017-12-02T08:31:38.529Z,101657.13
2017-12-02T08:32:41.010Z,101661.81
2017-12-02T08:33:43.497Z,101661.88
2017-12-02T08:34:45.973Z,101662.73
2017-12-02T08:35:48.485Z,101661.73
2017-12-02T08:36:50.997Z,101662.48
2017-12-02T08:37:53.470Z,101654.77
2017-12-02T08:38:55.942Z,101658.47
2017-12-02T08:39:58.426Z,101657.41
2017-12-02T08:41:00.909Z,101663.47
2017-12-02T08:42:03.390Z,101662.62
2017-12-02T08:43:05.877Z,101660.94
2017-12-02T08:44:08.351Z,101663.66
2017-12-02T08:45:11.771Z,101661.13
2017-12-02T08:46:14.252Z,101664.66
2017-12-02T08:47:16.719Z,101655.64
2017-12-02T08:48:19.210Z,101654.17
2017-12-02T08:49:21.693Z,101656.43
2017-12-02T08:50:24.184Z,101660.06
2017-12-02T08:51:26.654Z,101664.32
2017-12-02T08:52:29.196Z,101665.64
2017-12-02T08:53:31.662Z,101663.98
2017-12-02T08:54:34.153Z,101667.41
2017-12-02T08:55:36.614Z,101662.83
2017-12-02T08:56:39.097Z,101666.27
2017-12-02T08:57:41.580Z,101670.09
2017-12-02T08:58:44.062Z,101669.63
2017-12-02T08:59:46.527Z,101669.70
2017-12-02T09:00:49.004Z,101673.80
2017-12-02T09:01:51.484Z,101673.86
2017-12-02T09:02:53.942Z,101667.78
2017-12-02T09:03:56.407Z,101670.41
2017-12-02T09:04:58.889Z,101665.64
2017-12-02T09:06:01.355Z,101661.66
2017-12-02T09:07:03.841Z,101667.63
2017-12-02T09:08:06.332Z,101668.56
2017-12-02T09:09:08.804Z,101669.62
2017-12-02T09:10:11.290Z,101664.80
2017-12-02T09:11:13.788Z,101666.59
2017-12-02T09:12:16.417Z,101668.48
2017-12-02T09:13:18.879Z,101677.78
2017-12-02T09:14:21.461Z,101671.41
2017-12-02T09:15:23.919Z,101677.31
2017-12-02T09:16:26.391Z,101668.66
2017-12-02T09:17:28.855Z,101680.73
2017-12-02T09:18:31.338Z,101677.09
2017-12-02T09:19:33.810Z,101676.12
2017-12-02T09:20:36.305Z,101682.33
2017-12-02T09:21:38.827Z,101687.70
2017-12-02T09:22:41.306Z,101686.60
2017-12-02T09:23:43.775Z,101691.89
2017-12-02T09:24:46.251Z,101696.44
2017-12-02T09:25:48.727Z,101695.63
2017-12-02T09:26:51.215Z,101694.44
2017-12-02T09:27:53.722Z,101697.61
2017-12-02T09:28:56.711Z,101703.41
2017-12-02T09:29:59.975Z,101700.62
2017-12-02T09:31:02.460Z,101706.55
2017-12-02T09:32:04.963Z,101712.83
2017-12-02T09:33:07.422Z,101707.49
2017-12-02T09:34:09.900Z,101720.20
2017-12-02T09:35:12.371Z,101718.37
2017-12-02T09:36:14.853Z,101711.07
2017-12-02T09:37:17.318Z,101716.28
2017-12-02T09:38:19.797Z,101718.78
2017-12-02T09:39:22.273Z,101721.33
2017-12-02T09:40:24.757Z,101724.78
2017-12-02T09:41:27.231Z,101724.44
2017-12-02T09:42:29.708Z,101728.32
2017-12-02T09:43:32.193Z,101736.84
2017-12-02T09:44:34.658Z,101730.80
2017-12-02T09:45:37.136Z,101737.29
2017-12-02T09:46:39.598Z,101737.92
2017-12-02T09:47:42.102Z,101733.25
2017-12-02T09:48:44.591Z,101734.09
2017-12-02T09:49:47.063Z,101733.59
2017-12-02T09:50:49.550Z,101735.16
2017-12-02T09:51:52.019Z,101735.89
2017-12-02T09:52:54.493Z,101745.25
2017-12-02T09:53:56.973Z,101745.16
2017-12-02T09:54:59.443Z,101739.92
2017-12-02T09:56:01.906Z,101743.74
2017-12-02T09:57:04.425Z,101740.27
2017-12-02T09:58:06.905Z,101741.48
2017-12-02T09:59:09.385Z,101742.19
2017-12-02T10:00:11.842Z,101741.23
2017-12-02T10:01:14.447Z,101740.36
2017-12-02T10:02:17.044Z,101735.76
2017-12-02T10:03:19.507Z,101745.23
2017-12-02T10:04:22.038Z,101743.80
2017-12-02T10:05:24.521Z,101741.27
2017-12-02T10:06:26.996Z,101740.06
2017-12-02T10:07:30.131Z,101745.61
2017-12-02T10:08:32.644Z,101746.41
2017-12-02T10:09:35.447Z,101749.63
2017-12-02T10:10:38.060Z,101746.33
2017-12-02T10:11:40.523Z,101748.70
2017-12-02T10:12:43.036Z,101746.61
2017-12-02T10:13:45.602Z,101744.98
2017-12-02T10:14:48.074Z,101741.23
2017-12-02T10:15:50.557Z,101741.31
2017-12-02T10:16:53.018Z,101742.53
2017-12-02T10:17:55.494Z,101738.77
2017-12-02T10:18:58.144Z,101743.62
2017-12-02T10:20:00.650Z,101744.18
2017-12-02T10:21:03.123Z,101742.91
2017-12-02T10:22:05.609Z,101748.75
2017-12-02T10:23:08.075Z,101747.20
2017-12-02T10:24:10.560Z,101744.94
2017-12-02T10:25:13.023Z,101745.56
2017-12-02T10:26:15.497Z,101745.20
2017-12-02T10:27:17.985Z,101744.58
2017-12-02T10:28:20.675Z,101748.80
2017-12-02T10:29:23.133Z,101740.48
2017-12-02T10:30:25.600Z,101741.31
2017-12-02T10:31:28.076Z,101740.69
2017-12-02T10:32:30.546Z,101737.11
2017-12-02T10:33:33.029Z,101748.94
2017-12-02T10:34:35.933Z,101745.69
2017-12-02T10:35:38.404Z,101739.92
2017-12-02T10:36:40.873Z,101740.61
2017-12-02T10:37:43.638Z,101739.41
2017-12-02T10:38:46.129Z,101745.31
2017-12-02T10:39:48.615Z,101737.78
2017-12-02T10:40:51.102Z,101741.95
2017-12-02T10:41:53.571Z,101738.99
2017-12-02T10:42:56.034Z,101739.80
2017-12-02T10:43:58.499Z,101742.13
2017-12-02T10:45:01.046Z,101737.08
2017-12-02T10:46:05.478Z,101746.80
2017-12-02T10:47:08.005Z,101740.62
2017-12-02T10:48:10.472Z,101741.68
2017-12-02T10:49:12.964Z,101742.83
2017-12-02T10:50:15.456Z,101748.13
2017-12-02T10:51:17.933Z,101749.91
2017-12-02T10:52:21.612Z,101747.62
2017-12-02T10:53:24.472Z,101749.38
2017-12-02T10:54:27.171Z,101748.34
2017-12-02T10:55:29.642Z,101756.31
2017-12-02T10:56:32.792Z,101745.03
2017-12-02T10:57:35.263Z,101747.52
2017-12-02T10:58:38.887Z,101751.61
2017-12-02T10:59:41.370Z,101751.47
2017-12-02T11:00:43.837Z,101743.57
2017-12-02T11:01:46.311Z,101751.09
2017-12-02T11:02:48.779Z,101747.81
2017-12-02T11:03:51.259Z,101746.84
2017-12-02T11:04:53.737Z,101742.80
2017-12-02T11:05:56.849Z,101749.17
2017-12-02T11:06:59.347Z,101747.69
2017-12-02T11:08:01.811Z,101750.58
2017-12-02T11:09:04.770Z,101750.20
2017-12-02T11:10:07.230Z,101746.59
2017-12-02T11:11:10.482Z,101751.33
2017-12-02T11:12:12.996Z,101743.42
2017-12-02T11:13:15.513Z,101747.80
2017-12-02T11:14:17.982Z,101744.06
2017-12-02T11:15:20.454Z,101741.34
2017-12-02T11:16:22.918Z,101742.69
2017-12-02T11:17:25.419Z,101745.52
2017-12-02T11:18:27.905Z,101740.62
2017-12-02T11:19:30.463Z,101737.08
2017-12-02T11:20:34.026Z,101738.36
2017-12-02T11:21:36.505Z,101740.75
2017-12-02T11:22:38.992Z,101741.22
2017-12-02T11:23:41.458Z,101740.75
2017-12-02T11:24:43.967Z,101738.17
2017-12-02T11:25:46.434Z,101736.78
2017-12-02T11:26:48.925Z,101737.77
2017-12-02T11:27:51.505Z,101734.66
2017-12-02T11:28:53.970Z,101743.73
2017-12-02T11:29:56.430Z,101729.52
2017-12-02T11:30:58.965Z,101732.47
2017-12-02T11:32:01.458Z,101734.16
2017-12-02T11:33:03.931Z,101735.60
2017-12-02T11:34:06.425Z,101734.37
2017-12-02T11:35:08.897Z,101736.16
2017-12-02T11:36:11.413Z,101731.31
2017-12-02T11:37:13.910Z,101723.52
2017-12-02T11:38:16.469Z,101727.38
2017-12-02T11:39:18.940Z,101729.50
2017-12-02T11:40:21.436Z,101724.03
2017-12-02T11:41:23.908Z,101726.00
2017-12-02T11:42:26.438Z,101729.88
2017-12-02T11:43:29.447Z,101732.23
2017-12-02T11:44:31.956Z,101734.59
2017-12-02T11:45:34.462Z,101736.39
2017-12-02T11:46:36.941Z,101729.48
2017-12-02T11:47:39.430Z,101735.28
2017-12-02T11:48:41.909Z,101731.69
2017-12-02T11:49:44.402Z,101730.11
2017-12-02T11:50:46.876Z,101728.56
2017-12-02T11:51:49.346Z,101732.48
2017-12-02T11:52:51.810Z,101728.99
2017-12-02T11:53:54.281Z,101724.65